Time;durP1;ratioP1;P1;durP2;ratioP2;P2;SDS_P1;SDS_P2;PMS_P1;PMS_P2;Temp;Humidity;BMP_temperature;BMP_pressure;BME280_temperature;BME280_humidity;BME280_pressure;Samples;Min_cycle;Max_cycle;Signal;HPM_P1;HPM_P2
2024/03/19 00:00:19;;;;;;;33.90;16.80;;;;;;;14.40;52.26;99375.20;108203;1254;61132;-67
2024/03/19 00:02:47;;;;;;;29.30;15.20;;;;;;;14.63;51.78;99373.44;108183;1254;74619;-67
2024/03/19 00:05:14;;;;;;;30.90;15.70;;;;;;;14.50;51.99;99378.68;108194;1253;70261;-67
2024/03/19 00:07:41;;;;;;;31.20;17.20;;;;;;;14.47;51.77;99384.51;108214;1252;72420;-67
2024/03/19 00:10:08;;;;;;;31.40;17.60;;;;;;;14.29;51.82;99387.44;108202;1253;61085;-68
2024/03/19 00:12:34;;;;;;;36.10;17.60;;;;;;;14.28;51.41;99391.20;108216;1252;61344;-67
2024/03/19 00:15:01;;;;;;;31.40;18.10;;;;;;;14.06;51.25;99391.52;108186;1254;74411;-67
2024/03/19 00:17:28;;;;;;;32.60;17.80;;;;;;;14.03;50.79;99390.27;108234;1255;70164;-67
2024/03/19 00:19:55;;;;;;;36.50;19.20;;;;;;;14.03;50.62;99393.81;108188;1254;72547;-67
2024/03/19 00:22:24;;;;;;;34.70;18.70;;;;;;;13.98;50.55;99396.12;108228;1253;61166;-68
2024/03/19 00:24:51;;;;;;;34.60;18.10;;;;;;;13.69;50.92;99402.13;108223;1254;60986;-67
2024/03/19 00:27:18;;;;;;;40.20;20.60;;;;;;;13.72;50.70;99398.24;108249;1254;74444;-68
2024/03/19 00:32:23;;;;;;;40.80;21.50;;;;;;;11.94;55.32;99405.29;105078;1290;599918;-67
2024/03/19 00:34:51;;;;;;;47.70;22.30;;;;;;;13.27;51.57;99402.36;107400;1267;60856;-68
2024/03/19 00:37:18;;;;;;;52.40;24.90;;;;;;;13.34;51.06;99397.52;107405;1267;59979;-67
2024/03/19 00:39:45;;;;;;;53.40;25.30;;;;;;;13.23;51.21;99399.24;107304;1267;70819;-67
2024/03/19 00:42:12;;;;;;;58.30;26.00;;;;;;;13.17;51.16;99401.13;107273;1267;68718;-67
2024/03/19 00:44:40;;;;;;;55.30;26.20;;;;;;;12.92;51.77;99402.63;107215;1273;72431;-67
2024/03/19 00:47:07;;;;;;;68.80;27.20;;;;;;;12.82;51.74;99401.79;107225;1264;179748;-66
2024/03/19 00:49:34;;;;;;;66.70;29.90;;;;;;;12.51;52.23;99400.58;107383;1264;59628;-67
2024/03/19 00:52:03;;;;;;;70.30;30.80;;;;;;;12.53;51.89;99404.18;108172;1251;72099;-67
2024/03/19 00:54:30;;;;;;;65.50;28.50;;;;;;;12.23;52.35;99412.53;108131;1251;69590;-68
2024/03/19 00:56:58;;;;;;;45.70;20.30;;;;;;;11.97;53.00;99419.75;108203;1251;72651;-67
2024/03/19 00:59:25;;;;;;;72.60;31.30;;;;;;;11.85;52.97;99420.21;108213;1251;60307;-66
2024/03/19 01:01:52;;;;;;;63.50;28.20;;;;;;;12.11;52.02;99419.33;108203;1257;59251;-67
2024/03/19 01:04:19;;;;;;;60.80;26.30;;;;;;;12.05;51.98;99419.84;108243;1251;73822;-66
2024/03/19 01:06:47;;;;;;;65.80;29.40;;;;;;;11.99;51.83;99426.36;108218;1251;70307;-67
2024/03/19 01:09:14;;;;;;;69.80;31.70;;;;;;;11.58;52.55;99422.15;108246;1253;70473;-67
2024/03/19 01:11:43;;;;;;;79.20;33.50;;;;;;;11.59;52.50;99423.31;108243;1251;60832;-68
2024/03/19 01:14:10;;;;;;;66.60;31.10;;;;;;;11.48;52.94;99426.70;108219;1251;60509;-67
2024/03/19 01:16:37;;;;;;;85.00;33.30;;;;;;;11.60;52.33;99427.85;108195;1251;73943;-66
2024/03/19 01:19:05;;;;;;;112.80;40.10;;;;;;;11.50;52.39;99433.98;108213;1251;68833;-68
2024/03/19 01:21:32;;;;;;;124.50;41.10;;;;;;;11.09;53.06;99437.27;108245;1251;71860;-67
2024/03/19 01:23:59;;;;;;;130.70;44.30;;;;;;;11.02;52.85;99439.58;108218;1254;60387;-68
2024/03/19 01:26:27;;;;;;;123.20;40.80;;;;;;;11.03;52.73;99427.92;108187;1251;61105;-67
2024/03/19 01:28:55;;;;;;;130.90;44.60;;;;;;;11.21;52.34;99434.39;108194;1251;74001;-67
2024/03/19 01:31:22;;;;;;;115.20;41.80;;;;;;;11.15;52.44;99433.66;108147;1254;69947;-66
2024/03/19 01:33:50;;;;;;;112.10;41.80;;;;;;;11.13;52.36;99430.77;108129;1254;72652;-67
2024/03/19 01:36:17;;;;;;;102.20;38.10;;;;;;;11.02;52.43;99433.63;108167;1254;60340;-67
2024/03/19 01:38:44;;;;;;;87.60;33.00;;;;;;;11.08;52.24;99436.66;108092;1254;60332;-66
2024/03/19 01:41:14;;;;;;;91.70;35.70;;;;;;;10.90;52.72;99432.63;108052;1253;73859;-66
2024/03/19 01:43:41;;;;;;;84.90;33.70;;;;;;;10.84;52.72;99432.36;108002;1254;70472;-67
2024/03/19 01:46:26;;;;;;;81.90;33.90;;;;;;;10.62;52.95;99433.98;108067;1254;72996;-67
2024/03/19 01:48:54;;;;;;;71.40;29.80;;;;;;;10.65;52.78;99435.06;108006;1254;60870;-68
2024/03/19 01:51:22;;;;;;;65.90;28.20;;;;;;;10.69;52.58;99438.74;108151;1253;60456;-66
2024/03/19 01:53:49;;;;;;;59.80;27.30;;;;;;;10.68;52.60;99443.01;108034;1254;74086;-67
2024/03/19 01:56:17;;;;;;;52.50;25.50;;;;;;;10.55;52.85;99444.85;108090;1257;69493;-66
2024/03/19 01:58:48;;;;;;;57.20;26.70;;;;;;;10.53;52.86;99447.23;108135;1254;71463;-67
2024/03/19 02:01:16;;;;;;;62.20;28.00;;;;;;;10.26;53.43;99454.59;108073;1254;61178;-66
2024/03/19 02:03:44;;;;;;;62.60;28.40;;;;;;;10.30;53.42;99455.14;108101;1254;60299;-67
2024/03/19 02:06:12;;;;;;;60.40;26.60;;;;;;;10.51;52.97;99458.19;108106;1253;72645;-67
2024/03/19 02:08:56;;;;;;;54.20;24.70;;;;;;;10.43;53.26;99462.11;108193;1254;69960;-67
2024/03/19 02:11:23;;;;;;;40.90;19.90;;;;;;;10.45;53.19;99465.88;108129;1254;71866;-67
2024/03/19 02:13:50;;;;;;;46.60;24.80;;;;;;;10.49;53.08;99462.52;108252;1253;60830;-67
2024/03/19 02:16:18;;;;;;;47.60;23.20;;;;;;;10.62;52.68;99462.73;108146;1254;61176;-67
2024/03/19 02:18:46;;;;;;;42.70;23.80;;;;;;;10.77;52.44;99466.59;108155;1254;72844;-67
2024/03/19 02:21:13;;;;;;;36.30;20.30;;;;;;;10.98;51.94;99465.58;108069;1254;70581;-67
2024/03/19 02:23:41;;;;;;;40.30;19.30;;;;;;;10.98;51.73;99463.33;108133;1254;71473;-66
2024/03/19 02:26:08;;;;;;;42.70;22.20;;;;;;;10.84;52.10;99466.99;108039;1255;60345;-66
2024/03/19 02:28:35;;;;;;;35.10;19.00;;;;;;;10.95;51.77;99464.17;108039;1257;60539;-67
2024/03/19 02:31:03;;;;;;;35.60;20.10;;;;;;;10.75;51.85;99461.80;108166;1251;73000;-67
2024/03/19 02:33:30;;;;;;;34.30;18.60;;;;;;;10.64;52.11;99465.66;108156;1250;70732;-67
2024/03/19 02:35:57;;;;;;;32.40;18.30;;;;;;;10.59;52.04;99475.71;108197;1254;72664;-67
2024/03/19 02:38:27;;;;;;;33.10;18.10;;;;;;;10.55;51.94;99471.71;108203;1251;60424;-67
2024/03/19 02:40:54;;;;;;;32.50;16.70;;;;;;;10.81;51.22;99474.70;108204;1251;60136;-67
2024/03/19 02:43:21;;;;;;;33.90;16.30;;;;;;;10.85;51.03;99479.39;108184;1251;73852;-67
2024/03/19 02:45:49;;;;;;;38.80;19.50;;;;;;;10.58;51.06;99478.92;108165;1251;70311;-67
2024/03/19 02:48:18;;;;;;;36.60;18.70;;;;;;;10.64;50.89;99482.00;108201;1251;73269;-67
2024/03/19 02:50:46;;;;;;;33.90;18.50;;;;;;;10.59;50.83;99487.14;108237;1253;60791;-67
2024/03/19 02:53:13;;;;;;;34.20;17.10;;;;;;;10.25;50.98;99487.46;108302;1251;60384;-67
2024/03/19 02:55:40;;;;;;;37.50;17.40;;;;;;;10.25;50.67;99488.16;108179;1251;73790;-66
2024/03/19 02:58:08;;;;;;;34.40;15.80;;;;;;;10.35;50.37;99494.04;108193;1251;69310;-67
2024/03/19 03:00:36;;;;;;;35.10;17.00;;;;;;;10.40;50.21;99496.29;108196;1251;75401;-68
2024/03/19 03:03:04;;;;;;;39.40;18.00;;;;;;;10.29;50.45;99499.57;108194;1253;60444;-67
2024/03/19 03:05:31;;;;;;;40.60;17.30;;;;;;;10.29;50.36;99496.92;108218;1251;60265;-67
2024/03/19 03:07:58;;;;;;;29.80;14.40;;;;;;;10.18;50.62;99502.70;108207;1251;72982;-67
2024/03/19 03:10:25;;;;;;;34.20;15.80;;;;;;;10.00;50.79;99505.27;108168;1251;68984;-67
2024/03/19 03:12:53;;;;;;;26.60;12.80;;;;;;;10.17;50.37;99513.61;108202;1251;72665;-67
2024/03/19 03:15:21;;;;;;;28.10;13.40;;;;;;;9.98;50.30;99519.52;108346;1253;60807;-67
2024/03/19 03:17:49;;;;;;;32.20;14.10;;;;;;;10.14;49.84;99522.15;108246;1251;60717;-67
2024/03/19 03:20:16;;;;;;;28.60;14.40;;;;;;;10.05;50.06;99523.96;108268;1251;73662;-66
2024/03/19 03:22:43;;;;;;;27.30;13.50;;;;;;;10.19;49.84;99525.45;108208;1251;69093;-66
2024/03/19 03:25:15;;;;;;;26.60;12.90;;;;;;;10.04;50.20;99523.66;108231;1251;72743;-65
2024/03/19 03:27:43;;;;;;;26.90;13.10;;;;;;;10.28;49.84;99525.93;108225;1251;60414;-67
2024/03/19 03:30:12;;;;;;;28.40;13.20;;;;;;;10.19;49.89;99527.01;108235;1251;60241;-67
2024/03/19 03:32:45;;;;;;;22.40;11.60;;;;;;;10.12;50.09;99528.56;108107;1251;73838;-66
2024/03/19 03:35:15;;;;;;;22.20;11.60;;;;;;;10.05;50.31;99534.64;108217;1251;68814;-67
2024/03/19 03:37:42;;;;;;;17.10;9.20;;;;;;;10.03;50.16;99541.58;108201;1251;72672;-67
2024/03/19 03:40:19;;;;;;;15.30;8.00;;;;;;;10.07;49.96;99546.52;108217;1251;60873;-66
2024/03/19 03:42:47;;;;;;;10.60;5.90;;;;;;;9.95;50.10;99552.11;108318;1251;60277;-66
2024/03/19 03:45:26;;;;;;;11.60;6.80;;;;;;;10.08;49.78;99554.90;108152;1251;76564;-66
2024/03/19 03:47:53;;;;;;;9.60;6.00;;;;;;;10.02;49.77;99564.60;108213;1251;70582;-67
2024/03/19 03:50:21;;;;;;;10.30;6.40;;;;;;;10.06;49.62;99556.52;108288;1254;72427;-66
2024/03/19 03:52:48;;;;;;;7.40;5.40;;;;;;;10.14;49.48;99563.56;108289;1257;60357;-66
2024/03/19 03:55:15;;;;;;;7.60;4.90;;;;;;;10.30;49.17;99565.83;108343;1253;59565;-67
2024/03/19 03:57:45;;;;;;;7.50;5.30;;;;;;;10.16;49.71;99570.48;108268;1251;74428;-66
2024/03/19 04:00:13;;;;;;;8.00;5.30;;;;;;;10.29;49.47;99569.91;108206;1254;69409;-67
2024/03/19 04:02:42;;;;;;;10.30;5.30;;;;;;;10.38;49.31;99574.45;108076;1251;72444;-67
2024/03/19 04:05:10;;;;;;;7.90;4.50;;;;;;;10.47;49.01;99580.55;108181;1251;60427;-67
2024/03/19 04:07:41;;;;;;;7.10;4.50;;;;;;;10.29;49.51;99586.41;108274;1252;59233;-66
2024/03/19 04:10:10;;;;;;;6.70;4.80;;;;;;;10.30;49.43;99587.59;108195;1251;74286;-66
2024/03/19 04:12:38;;;;;;;5.20;4.00;;;;;;;10.30;49.49;99599.02;108143;1251;72655;-66
2024/03/19 04:15:06;;;;;;;6.40;4.70;;;;;;;10.44;49.21;99598.40;108179;1253;72758;-66
2024/03/19 04:17:34;;;;;;;5.80;4.40;;;;;;;10.63;48.84;99594.55;108167;1254;59821;-66
2024/03/19 04:20:05;;;;;;;5.00;4.10;;;;;;;10.55;48.79;99600.00;108237;1251;60152;-66
2024/03/19 04:22:33;;;;;;;5.20;3.90;;;;;;;10.36;49.18;99598.92;108199;1251;72571;-67
2024/03/19 04:25:02;;;;;;;4.80;3.80;;;;;;;10.40;48.95;99604.23;108312;1251;69282;-66
2024/03/19 04:27:30;;;;;;;4.50;3.30;;;;;;;10.30;49.44;99606.02;108181;1253;71404;-66
2024/03/19 04:29:57;;;;;;;4.80;3.70;;;;;;;10.37;49.33;99606.95;108271;1251;60300;-67
2024/03/19 04:32:25;;;;;;;6.90;4.50;;;;;;;10.62;48.83;99610.58;108211;1251;60344;-66
2024/03/19 04:34:52;;;;;;;6.10;4.10;;;;;;;10.68;48.73;99608.92;108219;1256;73938;-66
2024/03/19 04:37:19;;;;;;;5.10;3.90;;;;;;;10.80;48.63;99612.43;108229;1251;70118;-67
2024/03/19 04:39:48;;;;;;;5.80;3.90;;;;;;;10.44;49.31;99620.84;108341;1252;73754;-67
2024/03/19 04:42:18;;;;;;;4.20;3.70;;;;;;;10.22;49.94;99628.98;108259;1251;61057;-67
2024/03/19 04:44:46;;;;;;;4.90;3.40;;;;;;;10.31;49.86;99630.90;108260;1251;61131;-67
2024/03/19 04:47:17;;;;;;;5.00;3.80;;;;;;;10.38;49.85;99637.28;108149;1251;74681;-68
2024/03/19 04:49:44;;;;;;;4.90;3.50;;;;;;;10.56;49.49;99640.00;108261;1251;70196;-66
2024/03/19 04:52:12;;;;;;;4.60;3.60;;;;;;;10.51;49.70;99645.65;108231;1254;70993;-67
2024/03/19 04:54:40;;;;;;;6.50;3.50;;;;;;;10.58;49.60;99654.64;108234;1253;60055;-67
2024/03/19 04:57:08;;;;;;;6.10;3.70;;;;;;;10.55;49.68;99657.94;108274;1251;61191;-67
2024/03/19 04:59:36;;;;;;;4.30;2.90;;;;;;;10.53;49.66;99661.36;108366;1251;75125;-67
2024/03/19 05:02:03;;;;;;;4.70;3.60;;;;;;;10.45;49.80;99665.20;108210;1251;70349;-67
2024/03/19 05:04:32;;;;;;;4.10;3.60;;;;;;;10.63;49.32;99666.37;108230;1251;72803;-67
2024/03/19 05:06:59;;;;;;;5.80;3.90;;;;;;;10.89;48.81;99666.95;108228;1251;61230;-67
2024/03/19 05:09:27;;;;;;;4.00;3.10;;;;;;;10.85;48.96;99665.37;108237;1251;61250;-66
2024/03/19 05:11:55;;;;;;;4.00;3.00;;;;;;;10.85;48.43;99667.83;108133;1251;76633;-67
2024/03/19 05:14:22;;;;;;;4.70;3.50;;;;;;;10.88;48.24;99669.80;108219;1251;69009;-66
2024/03/19 05:16:50;;;;;;;6.30;4.30;;;;;;;10.76;48.59;99671.94;108221;1251;72690;-68
2024/03/19 05:19:17;;;;;;;8.10;4.60;;;;;;;11.02;48.16;99674.63;108192;1251;61342;-67
2024/03/19 05:21:44;;;;;;;6.70;4.00;;;;;;;10.91;48.26;99681.76;108209;1251;61167;-67
2024/03/19 05:24:15;;;;;;;6.60;3.10;;;;;;;10.70;48.42;99693.77;108200;1251;73412;-66
2024/03/19 05:26:43;;;;;;;5.80;3.50;;;;;;;10.86;48.24;99697.98;108151;1251;70818;-67
2024/03/19 05:29:10;;;;;;;7.40;4.60;;;;;;;10.91;48.02;99704.60;108212;1251;72695;-67
2024/03/19 05:31:37;;;;;;;7.60;4.50;;;;;;;11.06;47.72;99708.48;108200;1256;61134;-67
2024/03/19 05:34:07;;;;;;;8.40;5.20;;;;;;;11.03;47.62;99721.09;108250;1252;61224;-67
2024/03/19 05:36:34;;;;;;;9.40;5.40;;;;;;;11.04;47.75;99722.80;108100;1253;73670;-68
2024/03/19 05:39:08;;;;;;;7.90;4.70;;;;;;;11.22;47.47;99720.79;108076;1254;69369;-67
2024/03/19 05:41:36;;;;;;;7.60;4.90;;;;;;;11.12;47.68;99725.98;108028;1253;72682;-67
2024/03/19 05:44:03;;;;;;;6.70;4.20;;;;;;;11.28;47.62;99727.54;108076;1253;60896;-67
2024/03/19 05:46:31;;;;;;;6.70;4.70;;;;;;;11.35;47.63;99734.38;108113;1253;61202;-70
2024/03/19 05:48:58;;;;;;;8.60;5.10;;;;;;;11.52;47.22;99739.23;108035;1254;73635;-67
2024/03/19 05:51:25;;;;;;;6.30;4.20;;;;;;;11.61;47.25;99741.65;108082;1254;69031;-67
2024/03/19 05:53:52;;;;;;;4.90;3.50;;;;;;;11.46;47.43;99750.23;108042;1254;71217;-67
2024/03/19 05:56:20;;;;;;;5.60;4.10;;;;;;;11.35;47.57;99751.62;108052;1257;61231;-67
2024/03/19 05:58:47;;;;;;;7.40;4.90;;;;;;;11.48;47.43;99759.46;108063;1253;61515;-67
2024/03/19 06:01:14;;;;;;;7.90;5.00;;;;;;;11.72;47.16;99769.08;108112;1252;74621;-67
2024/03/19 06:03:41;;;;;;;6.70;5.30;;;;;;;11.90;46.91;99774.03;108102;1253;70132;-67
2024/03/19 06:06:09;;;;;;;5.10;4.00;;;;;;;11.77;47.15;99782.35;108039;1254;73715;-67
2024/03/19 06:08:37;;;;;;;6.00;3.50;;;;;;;11.76;47.14;99790.34;108073;1253;61209;-67
2024/03/19 06:11:04;;;;;;;4.80;4.30;;;;;;;11.63;47.34;99793.58;108261;1253;62124;-67
2024/03/19 06:13:32;;;;;;;5.50;4.20;;;;;;;11.57;47.59;99792.08;108266;1252;75610;-67
2024/03/19 06:16:00;;;;;;;5.70;2.90;;;;;;;11.55;47.67;99791.47;108135;1255;70417;-67
2024/03/19 06:18:27;;;;;;;6.50;4.70;;;;;;;11.38;48.12;99792.61;108071;1254;71440;-67
2024/03/19 06:20:58;;;;;;;4.90;3.50;;;;;;;11.46;47.93;99796.64;108059;1254;61195;-67
2024/03/19 06:23:26;;;;;;;3.60;3.10;;;;;;;11.45;47.86;99796.70;108052;1252;59547;-67
2024/03/19 06:25:53;;;;;;;5.10;3.50;;;;;;;11.70;47.55;99800.64;108058;1254;74654;-67
2024/03/19 06:28:20;;;;;;;5.70;3.50;;;;;;;11.65;47.69;99805.45;108059;1254;70278;-67
2024/03/19 06:30:47;;;;;;;3.50;2.90;;;;;;;11.63;47.46;99811.00;108111;1254;72644;-67
2024/03/19 06:33:15;;;;;;;4.30;2.90;;;;;;;11.70;47.19;99819.30;108079;1254;61838;-67
2024/03/19 06:35:42;;;;;;;5.70;4.10;;;;;;;11.71;46.98;99824.69;108241;1251;59781;-67
2024/03/19 06:38:09;;;;;;;7.00;3.80;;;;;;;11.85;46.95;99833.19;108178;1251;74715;-67
2024/03/19 06:40:37;;;;;;;5.80;4.10;;;;;;;11.83;46.72;99842.43;108285;1253;69904;-67
2024/03/19 06:43:04;;;;;;;6.50;4.30;;;;;;;11.85;46.65;99843.19;108146;1256;71357;-67
2024/03/19 06:45:32;;;;;;;8.80;4.90;;;;;;;11.95;46.43;99841.55;108174;1254;61138;-67
2024/03/19 06:47:59;;;;;;;6.40;4.60;;;;;;;12.04;46.15;99840.59;108175;1251;61132;-67
2024/03/19 06:50:27;;;;;;;6.60;4.50;;;;;;;12.15;45.99;99841.61;108095;1251;73981;-67
2024/03/19 06:52:55;;;;;;;4.70;3.50;;;;;;;12.08;46.10;99851.83;108214;1251;70886;-67
2024/03/19 06:55:22;;;;;;;11.40;4.60;;;;;;;11.78;46.53;99850.55;108141;1251;72692;-67
2024/03/19 06:57:49;;;;;;;7.20;4.20;;;;;;;11.92;46.43;99851.90;108196;1254;61197;-66
2024/03/19 07:00:18;;;;;;;5.90;4.00;;;;;;;12.10;46.20;99849.64;108179;1251;60557;-67
2024/03/19 07:02:46;;;;;;;4.70;3.80;;;;;;;12.22;46.04;99854.65;108203;1251;74754;-67
2024/03/19 07:05:14;;;;;;;5.20;3.90;;;;;;;12.26;45.91;99859.40;108184;1251;70657;-66
2024/03/19 07:07:41;;;;;;;5.00;3.60;;;;;;;12.23;45.92;99860.63;108207;1251;74022;-66
2024/03/19 07:10:10;;;;;;;7.00;4.30;;;;;;;11.87;46.49;99857.91;108163;1256;61196;-66
2024/03/19 07:12:39;;;;;;;7.70;4.20;;;;;;;12.03;46.33;99856.96;108252;1251;61992;-67
2024/03/19 07:15:10;;;;;;;6.60;4.80;;;;;;;11.95;46.21;99863.17;108212;1256;74713;-67
2024/03/19 07:17:38;;;;;;;7.70;4.70;;;;;;;12.02;46.27;99861.63;108189;1251;70129;-67
2024/03/19 07:20:09;;;;;;;9.50;4.80;;;;;;;12.19;46.05;99865.02;108192;1256;74653;-67
2024/03/19 07:22:37;;;;;;;10.90;5.30;;;;;;;12.26;45.88;99871.58;108221;1251;61240;-67
2024/03/19 07:25:07;;;;;;;16.70;5.70;;;;;;;12.05;46.34;99872.20;108186;1251;62160;-66
2024/03/19 07:27:40;;;;;;;7.80;4.50;;;;;;;12.17;45.91;99876.20;108192;1256;77241;-68
2024/03/19 07:30:09;;;;;;;7.90;5.30;;;;;;;12.36;45.66;99872.62;108227;1251;71463;-66
2024/03/19 07:32:37;;;;;;;8.40;5.40;;;;;;;12.32;45.63;99875.64;108243;1251;72907;-67
2024/03/19 07:35:04;;;;;;;7.30;4.10;;;;;;;12.36;45.42;99877.22;108217;1253;61262;-66
2024/03/19 07:37:32;;;;;;;6.60;4.20;;;;;;;12.12;45.79;99881.73;108366;1251;61257;-66
2024/03/19 07:39:59;;;;;;;7.00;3.50;;;;;;;12.38;45.19;99881.86;108228;1251;74782;-66
2024/03/19 07:42:27;;;;;;;6.60;4.20;;;;;;;12.25;45.37;99884.97;108229;1250;70905;-66
2024/03/19 07:44:55;;;;;;;5.90;4.10;;;;;;;12.33;44.95;99883.69;108209;1251;74945;-66
2024/03/19 07:47:22;;;;;;;6.50;3.90;;;;;;;12.54;44.70;99888.33;108194;1254;62283;-67
2024/03/19 07:49:50;;;;;;;5.30;3.40;;;;;;;12.10;45.01;99888.31;108204;1251;61089;-66
2024/03/19 07:52:17;;;;;;;6.40;4.00;;;;;;;12.52;44.73;99886.32;108185;1251;75649;-65
2024/03/19 07:54:45;;;;;;;5.20;3.40;;;;;;;12.64;44.56;99886.94;108238;1251;72713;-66
2024/03/19 07:57:13;;;;;;;5.60;3.60;;;;;;;12.54;44.53;99886.05;108237;1251;72639;-66
2024/03/19 07:59:40;;;;;;;5.30;3.50;;;;;;;12.73;43.77;99883.52;108395;1251;61263;-67
2024/03/19 08:02:08;;;;;;;6.50;3.80;;;;;;;12.80;43.75;99872.76;108294;1251;61304;-66
2024/03/19 08:04:36;;;;;;;7.40;2.70;;;;;;;13.03;43.33;99879.01;108267;1251;75160;-66
2024/03/19 08:07:04;;;;;;;4.20;2.70;;;;;;;12.73;43.18;99884.41;108232;1251;70643;-66
2024/03/19 08:09:32;;;;;;;3.60;3.10;;;;;;;12.42;43.78;99897.71;108327;1253;71752;-66
2024/03/19 08:12:05;;;;;;;3.90;2.90;;;;;;;12.54;43.05;99910.89;108150;1253;61269;-66
2024/03/19 08:14:35;;;;;;;4.70;3.30;;;;;;;12.60;42.94;99909.71;108193;1251;61557;-66
2024/03/19 08:17:03;;;;;;;4.50;3.40;;;;;;;12.63;43.01;99916.23;108188;1251;74846;-66
2024/03/19 08:19:30;;;;;;;5.70;3.40;;;;;;;12.58;42.71;99919.66;108136;1251;72001;-67
2024/03/19 08:21:58;;;;;;;6.80;3.70;;;;;;;12.52;43.17;99928.44;108157;1254;73742;-66
2024/03/19 08:24:26;;;;;;;6.90;4.50;;;;;;;12.89;42.91;99934.53;108126;1251;61088;-66
2024/03/19 08:26:53;;;;;;;5.90;4.10;;;;;;;13.40;42.40;99942.39;108071;1251;61110;-66
2024/03/19 08:29:21;;;;;;;5.30;3.40;;;;;;;13.60;41.72;99945.02;108255;1251;74841;-66
2024/03/19 08:31:48;;;;;;;6.90;3.00;;;;;;;13.44;41.19;99947.27;108161;1251;71855;-66
2024/03/19 08:34:15;;;;;;;4.20;3.00;;;;;;;13.11;41.40;99953.88;108139;1251;72678;-66
2024/03/19 08:36:43;;;;;;;5.40;3.70;;;;;;;13.28;41.02;99949.30;108152;1254;61105;-66
2024/03/19 08:39:11;;;;;;;6.90;3.80;;;;;;;13.33;40.91;99945.89;108228;1251;61273;-66
2024/03/19 08:41:38;;;;;;;7.50;4.00;;;;;;;13.37;40.97;99951.71;108187;1251;74057;-65
2024/03/19 08:44:06;;;;;;;5.50;3.70;;;;;;;13.48;40.84;99952.40;108305;1251;70251;-66
2024/03/19 08:46:34;;;;;;;8.10;4.40;;;;;;;13.18;40.95;99956.34;108153;1251;73010;-66
2024/03/19 08:49:02;;;;;;;5.00;3.50;;;;;;;13.25;40.60;99953.00;108162;1253;61089;-66
2024/03/19 08:51:31;;;;;;;8.00;4.50;;;;;;;13.23;40.85;99958.39;108190;1251;61184;-66
2024/03/19 08:53:59;;;;;;;9.80;4.00;;;;;;;13.11;40.78;99966.36;108187;1251;76985;-67
2024/03/19 08:56:26;;;;;;;12.30;4.40;;;;;;;13.20;40.81;99965.22;108225;1251;68997;-66
2024/03/19 08:58:53;;;;;;;4.90;3.60;;;;;;;13.48;40.46;99968.79;108156;1253;73382;-67
2024/03/19 09:01:21;;;;;;;11.10;3.40;;;;;;;13.58;40.03;99972.67;108199;1251;61212;-66
2024/03/19 09:03:49;;;;;;;6.10;3.70;;;;;;;13.83;40.26;99972.42;108205;1251;61395;-66
2024/03/19 09:06:16;;;;;;;5.50;3.30;;;;;;;14.12;39.89;99974.24;108233;1251;74728;-66
2024/03/19 09:08:44;;;;;;;4.90;3.80;;;;;;;14.26;38.79;99978.02;108221;1251;72642;-66
2024/03/19 09:11:11;;;;;;;4.20;3.10;;;;;;;14.59;37.98;99979.07;108244;1253;72684;-66
2024/03/19 09:13:39;;;;;;;4.50;3.10;;;;;;;14.42;37.87;99986.56;108313;1251;61792;-66
2024/03/19 09:16:06;;;;;;;4.30;3.10;;;;;;;14.77;37.68;99986.73;108219;1253;61654;-66
2024/03/19 09:18:34;;;;;;;4.50;3.10;;;;;;;14.89;37.37;99987.66;108109;1251;73670;-67
2024/03/19 09:21:01;;;;;;;8.70;3.20;;;;;;;14.54;37.53;99993.10;108196;1251;71018;-66
2024/03/19 09:23:28;;;;;;;5.20;3.50;;;;;;;14.68;37.34;99991.67;108203;1253;73090;-66
2024/03/19 09:25:56;;;;;;;6.50;4.40;;;;;;;14.84;37.22;99992.16;108143;1251;61097;-66
2024/03/19 09:28:24;;;;;;;5.00;3.40;;;;;;;14.94;37.29;99993.20;108154;1251;62428;-67
2024/03/19 09:30:52;;;;;;;3.40;2.80;;;;;;;14.87;37.36;99995.03;108190;1251;75316;-67
2024/03/19 09:33:19;;;;;;;5.10;3.70;;;;;;;14.87;37.53;99995.20;108142;1253;72561;-67
2024/03/19 09:35:46;;;;;;;5.40;3.20;;;;;;;15.10;37.42;99997.21;108134;1254;73978;-66
2024/03/19 09:38:15;;;;;;;4.10;2.70;;;;;;;15.20;37.41;100001.42;108156;1254;63120;-67
2024/03/19 09:40:56;;;;;;;6.30;3.40;;;;;;;14.69;37.20;100011.74;108213;1253;61017;-67
2024/03/19 09:43:23;;;;;;;7.40;3.50;;;;;;;14.88;36.99;100010.52;108209;1253;76352;-68
2024/03/19 09:45:51;;;;;;;5.00;3.10;;;;;;;14.75;37.42;100016.68;108140;1254;70973;-67
2024/03/19 09:48:19;;;;;;;4.10;3.00;;;;;;;14.77;37.39;100019.27;108140;1256;74940;-68
2024/03/19 09:50:47;;;;;;;4.80;3.30;;;;;;;14.65;36.85;100025.20;108180;1254;61396;-67
2024/03/19 09:53:24;;;;;;;4.10;3.50;;;;;;;14.74;37.05;100027.56;108065;1254;62180;-68
2024/03/19 09:55:52;;;;;;;4.50;2.90;;;;;;;14.90;36.77;100025.77;108144;1256;74880;-67
2024/03/19 09:58:23;;;;;;;4.20;2.60;;;;;;;15.03;36.50;100026.08;108131;1254;68595;-67
2024/03/19 10:00:52;;;;;;;4.60;3.20;;;;;;;15.09;36.50;100025.04;108107;1253;74901;-67
2024/03/19 10:03:19;;;;;;;3.20;2.60;;;;;;;15.17;36.88;100028.81;108181;1254;62028;-67
2024/03/19 10:05:47;;;;;;;3.80;3.10;;;;;;;15.13;36.71;100026.59;108197;1254;62227;-68
2024/03/19 10:08:15;;;;;;;3.80;2.90;;;;;;;15.19;36.73;100027.48;108184;1254;75125;-67
2024/03/19 10:10:46;;;;;;;5.00;3.00;;;;;;;15.18;36.40;100034.27;108178;1256;68515;-66
2024/03/19 10:13:13;;;;;;;;;;;;;;;14.94;36.90;100033.10;108226;1253;74939;-67
2024/03/19 10:15:41;;;;;;;4.80;3.20;;;;;;;15.17;37.14;100039.63;108246;1252;61226;-66
2024/03/19 10:18:08;;;;;;;7.00;2.90;;;;;;;15.20;36.39;100039.26;108171;1252;61068;-67
2024/03/19 10:20:40;;;;;;;3.20;2.70;;;;;;;15.18;36.31;100046.08;108175;1252;74773;-66
2024/03/19 10:23:07;;;;;;;4.50;3.00;;;;;;;15.30;36.16;100045.36;108182;1253;70657;-66
2024/03/19 10:25:37;;;;;;;3.80;2.70;;;;;;;15.36;36.14;100043.11;108190;1252;74850;-67
2024/03/19 10:28:06;;;;;;;3.40;2.60;;;;;;;15.54;36.25;100043.46;108207;1254;61952;-66
2024/03/19 10:30:33;;;;;;;6.20;3.30;;;;;;;15.60;36.11;100043.65;108123;1253;61103;-64
2024/03/19 10:33:01;;;;;;;4.30;2.70;;;;;;;15.64;36.17;100046.63;108060;1254;74805;-64
2024/03/19 10:35:29;;;;;;;4.90;2.80;;;;;;;15.91;35.54;100046.09;107896;1253;70687;-65
2024/03/19 10:37:56;;;;;;;3.10;2.50;;;;;;;16.45;34.71;100038.67;108060;1253;73021;-67
2024/03/19 10:40:26;;;;;;;3.10;2.50;;;;;;;16.58;34.02;100039.45;107963;1259;61915;-67
2024/03/19 10:42:53;;;;;;;4.20;2.90;;;;;;;16.84;33.40;100038.02;107889;1253;61281;-66
2024/03/19 10:45:21;;;;;;;3.90;2.80;;;;;;;17.26;33.38;100043.25;107927;1253;74724;-67
2024/03/19 10:47:50;;;;;;;3.70;2.40;;;;;;;17.72;32.71;100041.60;108118;1253;70285;-67
2024/03/19 10:50:19;;;;;;;3.00;2.50;;;;;;;18.00;31.01;100042.73;108017;1253;73239;-68
2024/03/19 10:52:49;;;;;;;3.90;2.60;;;;;;;18.35;30.30;100043.87;108088;1253;61061;-67
2024/03/19 10:55:17;;;;;;;4.40;2.90;;;;;;;18.54;30.42;100044.64;107996;1253;60982;-67
2024/03/19 10:57:47;;;;;;;3.80;2.60;;;;;;;18.37;30.67;100051.66;108013;1253;76926;-67
2024/03/19 11:00:23;;;;;;;3.90;2.80;;;;;;;18.35;30.77;100054.33;108011;1253;71557;-67
2024/03/19 11:02:53;;;;;;;3.50;2.50;;;;;;;18.41;31.05;100050.68;107984;1253;72816;-66
2024/03/19 11:05:21;;;;;;;3.20;2.20;;;;;;;18.73;30.86;100051.98;107937;1253;61487;-67
2024/03/19 11:07:54;;;;;;;4.60;2.20;;;;;;;19.29;29.40;100053.79;107981;1253;61096;-67
2024/03/19 11:10:32;;;;;;;3.60;2.10;;;;;;;19.44;28.93;100048.73;107976;1253;73881;-67
2024/03/19 11:13:04;;;;;;;4.50;2.00;;;;;;;19.28;28.39;100054.56;108064;1254;70809;-67
2024/03/19 11:15:31;;;;;;;3.50;2.40;;;;;;;19.76;28.30;100053.08;107900;1256;74553;-67
2024/03/19 11:18:05;;;;;;;8.60;2.30;;;;;;;20.24;28.13;100049.95;107969;1253;62302;-68
2024/03/19 11:20:33;;;;;;;4.20;2.50;;;;;;;20.59;27.61;100046.30;108057;1253;61141;-67
2024/03/19 11:23:02;;;;;;;10.50;2.50;;;;;;;20.77;27.12;100053.58;107923;1254;75030;-67
2024/03/19 11:25:30;;;;;;;5.50;2.80;;;;;;;20.52;26.92;100052.70;108002;1253;72641;-67